createdAt,value
2022-11-05T00:02:12.822Z,96769.81
2022-11-05T00:04:39.458Z,96775.22
2022-11-05T00:07:30.546Z,96779.66
2022-11-05T00:10:01.877Z,96789.44
2022-11-05T00:12:28.493Z,96778.53
2022-11-05T00:14:55.099Z,96774.06
2022-11-05T00:17:21.726Z,96783.59
2022-11-05T00:19:48.411Z,96785.28
2022-11-05T00:22:15.010Z,96795.41
2022-11-05T00:24:41.621Z,96795.66
2022-11-05T00:27:08.302Z,96805.75
2022-11-05T00:29:34.917Z,96802.06
2022-11-05T00:32:01.725Z,96811.63
2022-11-05T00:34:28.344Z,96815.25
2022-11-05T00:36:55.536Z,96816.28
2022-11-05T00:39:22.134Z,96823.72
2022-11-05T00:41:48.749Z,96824.34
2022-11-05T00:44:15.355Z,96820.78
2022-11-05T00:46:44.097Z,96831.44
2022-11-05T00:49:10.715Z,96827.19
2022-11-05T00:51:37.330Z,96828.72
2022-11-05T00:54:03.978Z,96826.94
2022-11-05T00:56:30.598Z,96831.13
2022-11-05T00:58:57.210Z,96834.38
2022-11-05T01:01:23.905Z,96839.78
2022-11-05T01:03:51.989Z,96841.63
2022-11-05T01:06:18.931Z,96837.91
2022-11-05T01:08:45.687Z,96839.47
2022-11-05T01:11:17.310Z,96840.50
2022-11-05T01:13:43.924Z,96838.44
2022-11-05T01:16:10.541Z,96844.03
2022-11-05T01:18:37.875Z,96842.63
2022-11-05T01:21:12.422Z,96843.88
2022-11-05T01:23:39.044Z,96842.38
2022-11-05T01:26:05.722Z,96846.25
2022-11-05T01:28:32.518Z,96852.66
2022-11-05T01:30:59.174Z,96856.94
2022-11-05T01:33:25.790Z,96864.38
2022-11-05T01:35:52.406Z,96859.00
2022-11-05T01:38:19.030Z,96862.78
2022-11-05T01:40:45.652Z,96859.09
2022-11-05T01:43:20.309Z,96853.00
2022-11-05T01:45:49.365Z,96860.94
2022-11-05T01:48:18.221Z,96859.59
2022-11-05T01:50:59.305Z,96870.25
2022-11-05T01:53:27.447Z,96863.88
2022-11-05T01:56:18.425Z,96865.44
2022-11-05T01:58:46.328Z,96868.75
2022-11-05T02:01:12.933Z,96864.75
2022-11-05T02:03:39.547Z,96871.34
2022-11-05T02:06:06.200Z,96876.88
2022-11-05T02:08:51.583Z,96883.72
2022-11-05T02:11:18.740Z,96881.59
2022-11-05T02:13:45.740Z,96882.09
2022-11-05T02:16:22.010Z,96886.66
2022-11-05T02:19:21.030Z,96890.59
2022-11-05T02:22:05.550Z,96887.84
2022-11-05T02:25:00.946Z,96892.34
2022-11-05T02:27:55.072Z,96896.53
2022-11-05T02:30:47.676Z,96883.81
2022-11-05T02:34:28.441Z,96893.97
2022-11-05T02:37:20.299Z,96896.91
2022-11-05T02:40:11.089Z,96899.03
2022-11-05T02:42:43.962Z,96893.81
2022-11-05T02:45:32.468Z,96899.41
2022-11-05T02:48:03.455Z,96900.25
2022-11-05T02:50:48.675Z,96899.78
2022-11-05T02:53:31.582Z,96907.47
2022-11-05T02:56:04.026Z,96903.81
2022-11-05T02:58:30.660Z,96905.78
2022-11-05T03:01:00.239Z,96918.88
2022-11-05T03:03:37.442Z,96915.84
2022-11-05T03:06:22.758Z,96930.38
2022-11-05T03:08:52.145Z,96931.72
2022-11-05T03:11:19.988Z,96925.31
2022-11-05T03:13:46.481Z,96932.19
2022-11-05T03:16:18.259Z,96932.78
2022-11-05T03:19:15.580Z,96931.22
2022-11-05T03:22:01.024Z,96926.38
2022-11-05T03:24:32.434Z,96925.88
2022-11-05T03:27:07.357Z,96933.78
2022-11-05T03:29:36.589Z,96934.84
2022-11-05T03:32:03.293Z,96934.19
2022-11-05T03:34:32.020Z,96943.53
2022-11-05T03:36:58.627Z,96948.78
2022-11-05T03:39:45.979Z,96949.09
2022-11-05T03:42:15.886Z,96954.38
2022-11-05T03:44:45.221Z,96959.72
2022-11-05T03:47:14.974Z,96958.66
2022-11-05T03:49:47.840Z,96957.59
2022-11-05T03:52:18.956Z,96969.56
2022-11-05T03:54:45.884Z,96967.44
2022-11-05T03:57:14.788Z,96965.28
2022-11-05T03:59:45.649Z,96968.22
2022-11-05T04:02:13.094Z,96969.28
2022-11-05T04:04:39.818Z,96968.22
2022-11-05T04:07:06.417Z,96967.16
2022-11-05T04:09:33.033Z,96971.94
2022-11-05T04:11:59.647Z,96967.16
2022-11-05T04:14:26.262Z,96971.16
2022-11-05T04:16:52.897Z,96975.44
2022-11-05T04:19:23.748Z,96975.66
2022-11-05T04:21:52.754Z,96969.81
2022-11-05T04:24:19.370Z,96974.63
2022-11-05T04:26:45.976Z,96975.94
2022-11-05T04:29:12.627Z,96980.19
2022-11-05T04:31:39.231Z,96977.53
2022-11-05T04:34:05.920Z,96986.56
2022-11-05T04:36:32.547Z,96988.41
2022-11-05T04:38:59.162Z,96989.75
2022-11-05T04:41:26.008Z,96983.63
2022-11-05T04:43:52.613Z,96990.00
2022-11-05T04:46:19.236Z,96990.00
2022-11-05T04:48:45.857Z,96990.00
2022-11-05T04:51:12.476Z,96998.78
2022-11-05T04:53:39.087Z,96996.91
2022-11-05T04:56:12.550Z,97010.72
2022-11-05T04:58:40.485Z,97011.28
2022-11-05T05:01:08.989Z,97009.94
2022-11-05T05:03:35.650Z,97012.06
2022-11-05T05:06:04.023Z,97011.81
2022-11-05T05:08:30.938Z,97007.53
2022-11-05T05:11:02.114Z,97022.69
2022-11-05T05:13:28.728Z,97028.00
2022-11-05T05:15:55.347Z,97025.09
2022-11-05T05:18:21.959Z,97036.22
2022-11-05T05:20:48.634Z,97028.81
2022-11-05T05:23:15.251Z,97026.94
2022-11-05T05:25:41.863Z,97038.38
2022-11-05T05:28:08.465Z,97033.88
2022-11-05T05:30:35.098Z,97035.19
2022-11-05T05:33:02.731Z,97044.97
2022-11-05T05:35:29.476Z,97049.50
2022-11-05T05:37:56.155Z,97042.09
2022-11-05T05:40:23.526Z,97046.31
2022-11-05T05:42:54.753Z,97044.75
2022-11-05T05:45:21.359Z,97043.97
2022-11-05T05:47:47.981Z,97041.53
2022-11-05T05:50:14.598Z,97048.47
2022-11-05T05:52:41.216Z,97051.63
2022-11-05T05:55:08.014Z,97055.09
2022-11-05T05:57:34.631Z,97052.97
2022-11-05T06:00:01.295Z,97056.44
2022-11-05T06:02:30.441Z,97057.22
2022-11-05T06:04:57.205Z,97066.75
2022-11-05T06:07:23.809Z,97071.06
2022-11-05T06:09:50.462Z,97066.00
2022-11-05T06:12:17.078Z,97071.31
2022-11-05T06:14:43.693Z,97070.00
2022-11-05T06:17:10.301Z,97068.16
2022-11-05T06:19:36.915Z,97074.47
2022-11-05T06:22:03.539Z,97074.47
2022-11-05T06:24:30.164Z,97080.63
2022-11-05T06:26:56.806Z,97084.84
2022-11-05T06:29:23.429Z,97091.81
2022-11-05T06:31:50.042Z,97086.22
2022-11-05T06:34:16.648Z,97085.69
2022-11-05T06:36:43.256Z,97086.22
2022-11-05T06:39:10.781Z,97089.88
2022-11-05T06:41:56.952Z,97093.13
2022-11-05T06:44:24.000Z,97096.31
2022-11-05T06:46:50.614Z,97093.66
2022-11-05T06:49:17.231Z,97096.59
2022-11-05T06:51:43.842Z,97102.16
2022-11-05T06:54:10.454Z,97105.09
2022-11-05T06:56:37.052Z,97107.22
2022-11-05T06:59:03.660Z,97103.75
2022-11-05T07:01:30.399Z,97109.56
2022-11-05T07:03:57.071Z,97102.09
2022-11-05T07:06:23.695Z,97109.03
2022-11-05T07:08:50.326Z,97114.88
2022-11-05T07:11:18.163Z,97117.28
2022-11-05T07:13:44.773Z,97120.16
2022-11-05T07:16:11.647Z,97133.44
2022-11-05T18:17:08.929Z,97242.16
2022-11-05T18:19:35.551Z,97248.13
2022-11-05T18:22:02.379Z,97253.59
2022-11-05T18:24:28.991Z,97260.41
2022-11-05T18:26:55.606Z,97266.31
2022-11-05T18:29:22.226Z,97261.56
2022-11-05T18:31:48.835Z,97260.09
2022-11-05T18:34:15.453Z,97273.75
2022-11-05T18:36:43.295Z,97276.44
2022-11-05T18:39:09.916Z,97274.44
2022-11-05T18:41:36.527Z,97268.75
2022-11-05T18:44:03.237Z,97270.84
2022-11-05T18:46:56.564Z,97264.22
2022-11-05T18:49:17.144Z,97266.31
2022-11-05T18:51:43.754Z,97268.09
2022-11-05T18:54:10.396Z,97262.31
2022-11-05T18:56:37.016Z,97262.31
2022-11-05T18:59:34.740Z,97259.13
2022-11-05T19:01:50.334Z,97248.75
2022-11-05T19:04:17.018Z,97252.44
2022-11-05T19:06:43.630Z,97255.41
2022-11-05T19:09:10.364Z,97264.59
2022-11-05T19:11:36.989Z,97268.41
2022-11-05T19:14:03.608Z,97274.88
2022-11-05T19:16:30.352Z,97275.41
2022-11-05T19:19:00.993Z,97289.00
2022-11-05T19:21:27.754Z,97286.41
2022-11-05T19:23:55.778Z,97280.38
2022-11-05T19:26:28.372Z,97277.88
2022-11-05T19:28:57.475Z,97283.84
2022-11-05T19:31:24.182Z,97281.31
2022-11-05T19:33:51.025Z,97285.66
2022-11-05T19:36:18.001Z,97278.19
2022-11-05T19:38:44.635Z,97267.91
2022-11-05T19:41:12.417Z,97275.50
2022-11-05T19:43:39.032Z,97271.28
2022-11-05T19:46:10.185Z,97290.63
2022-11-05T19:48:37.021Z,97285.91
2022-11-05T19:51:12.876Z,97291.25
2022-11-05T19:53:39.585Z,97296.38
2022-11-05T19:56:14.585Z,97291.63
2022-11-05T19:58:41.233Z,97287.56
2022-11-05T20:01:08.079Z,97284.13
2022-11-05T20:03:34.752Z,97282.47
2022-11-05T20:06:02.589Z,97274.69
2022-11-05T20:08:29.476Z,97272.69
2022-11-05T20:10:56.246Z,97273.53
2022-11-05T20:13:23.179Z,97272.28
2022-11-05T20:15:49.780Z,97278.47
2022-11-05T20:18:16.417Z,97283.03
2022-11-05T20:20:43.821Z,97278.84
2022-11-05T20:23:10.445Z,97275.00
2022-11-05T20:25:37.153Z,97272.06
2022-11-05T20:28:03.843Z,97269.41
2022-11-05T20:30:30.486Z,97266.28
2022-11-05T20:32:57.497Z,97267.63
2022-11-05T20:35:24.261Z,97266.53
2022-11-05T20:37:53.971Z,97271.53
2022-11-05T20:40:21.038Z,97272.63
2022-11-05T20:42:53.336Z,97276.13
2022-11-05T20:45:19.958Z,97277.69
2022-11-05T20:47:46.627Z,97275.22
2022-11-05T20:50:13.267Z,97273.44
2022-11-05T20:52:39.893Z,97277.47
2022-11-05T20:55:06.773Z,97272.88
2022-11-05T20:57:33.386Z,97276.56
2022-11-05T20:59:59.993Z,97283.28
2022-11-05T21:02:26.735Z,97283.03
2022-11-05T21:04:53.428Z,97297.31
2022-11-05T21:07:20.048Z,97288.88
2022-11-05T21:09:46.681Z,97288.31
2022-11-05T21:12:13.322Z,97290.03
2022-11-05T21:14:41.291Z,97298.84
2022-11-05T21:17:08.770Z,97309.63
2022-11-05T21:19:35.736Z,97316.25
2022-11-05T21:22:02.754Z,97320.44
2022-11-05T21:24:29.416Z,97307.19
2022-11-05T21:26:56.035Z,97308.38
2022-11-05T21:29:22.657Z,97313.28
2022-11-05T21:31:49.285Z,97316.19
2022-11-05T21:34:16.330Z,97321.00
2022-11-05T21:36:42.973Z,97322.22
2022-11-05T21:39:13.442Z,97324.94
2022-11-05T21:41:40.522Z,97324.78
2022-11-05T21:44:07.132Z,97330.81
2022-11-05T21:46:33.744Z,97317.19
2022-11-05T21:49:00.356Z,97318.91
2022-11-05T21:51:26.974Z,97316.69
2022-11-05T21:53:53.585Z,97318.91
2022-11-05T21:56:21.023Z,97321.78
2022-11-05T21:58:47.638Z,97321.44
2022-11-05T22:01:14.321Z,97332.53
2022-11-05T22:03:40.962Z,97339.66
2022-11-05T22:06:07.577Z,97336.22
2022-11-05T22:08:34.195Z,97341.38
2022-11-05T22:11:03.643Z,97339.84
2022-11-05T22:13:30.260Z,97331.50
2022-11-05T22:15:56.925Z,97328.47
2022-11-05T22:18:23.605Z,97333.25
2022-11-05T22:20:50.206Z,97329.00
2022-11-05T22:23:16.804Z,97317.66
2022-11-05T22:25:43.407Z,97313.47
2022-11-05T22:28:10.279Z,97316.34
2022-11-05T22:30:37.101Z,97315.38
2022-11-05T22:33:03.705Z,97309.84
2022-11-05T22:35:30.317Z,97316.34
2022-11-05T22:37:56.926Z,97303.19
2022-11-05T22:40:24.236Z,97287.13
2022-11-05T22:42:50.951Z,97268.19
2022-11-05T22:45:17.585Z,97261.59
2022-11-05T22:47:44.199Z,97251.44
2022-11-05T22:50:10.813Z,97247.53
2022-11-05T22:52:37.436Z,97261.94
2022-11-05T22:55:04.231Z,97263.59
2022-11-05T22:57:30.839Z,97260.94
2022-11-05T22:59:57.449Z,97261.34
2022-11-05T23:02:24.343Z,97251.25
2022-11-05T23:04:51.686Z,97253.94
2022-11-05T23:07:21.963Z,97254.56
2022-11-05T23:09:51.279Z,97255.38
2022-11-05T23:12:43.820Z,97250.50
2022-11-05T23:15:10.502Z,97247.28
2022-11-05T23:17:37.119Z,97255.56
2022-11-05T23:20:05.010Z,97258.19
2022-11-05T23:22:31.648Z,97264.47
2022-11-05T23:24:58.266Z,97264.47
2022-11-05T23:27:24.881Z,97262.50
2022-11-05T23:29:51.506Z,97263.56
2022-11-05T23:32:18.108Z,97272.69
2022-11-05T23:34:44.722Z,97279.00
2022-11-05T23:37:11.342Z,97287.09
2022-11-05T23:39:42.458Z,97284.22
2022-11-05T23:42:09.618Z,97273.88
2022-11-05T23:44:36.241Z,97283.75
2022-11-05T23:47:02.859Z,97281.75
2022-11-05T23:49:29.470Z,97274.06
2022-11-05T23:51:56.087Z,97275.13
2022-11-05T23:54:22.707Z,97265.63
2022-11-05T23:56:49.317Z,97265.47
2022-11-05T23:59:15.923Z,97266.19
